CheckWX is a tool to help pilots better visualize weather data.  It is not intended as a substitute for an official pre-flight weather briefing.

08:36:24 UTC

KLAX METAR
Los Angeles International Airport
Los Angeles, California, USA
Current

43 mins ago

KLAX 190753Z 26014KT 10SM BKN065 BKN090 14/07 A2991 RMK AO2 RAE14 SLP128 P0000 T01440067 402110122
Observed
May-19 @ 07:53 UTC
Wind
  • 260° at 14 KTS
Visibility
10 SM
Flight Rules
VFR
Cloud Levels
  • Broken at 6,500' AGL
  • Broken at 9,000' AGL
Temperature
14°C / 57°F
Dewpoint
C / 45°F
Humidity
63%
Altimeter
29.91" Hg
Pressure
1012.92 hPa
Current Rain
0.01"
Previous

2 hours ago

KLAX 190653Z 26013KT 10SM -RA SCT060 BKN090 14/08 A2993 RMK AO2 RAB53 SLP134 P0000 T01440083
Observed
May-19 @ 06:53 UTC
Wind
  • 260° at 13 KTS
Visibility
10 SM
Flight Rules
VFR
Conditions
Light Rain
Cloud Levels
  • Scattered at 6,000' AGL
  • Broken at 9,000' AGL
Temperature
14°C / 57°F
Dewpoint
C / 46°F
Humidity
67%
Altimeter
29.93" Hg
Pressure
1013.52 hPa
Current Rain
0.01"
Previous

3 hours ago

KLAX 190553Z 27014KT 10SM FEW011 BKN090 14/10 A2994 RMK AO2 RAB00E53 SLP136 P0000 60000 T01440100 10178 20144 53007
Observed
May-19 @ 05:53 UTC
Wind
  • 270° at 14 KTS
Visibility
10 SM
Flight Rules
VFR
Cloud Levels
  • Few at 1,100' AGL
  • Broken at 9,000' AGL
Temperature
14°C / 57°F
Dewpoint
10°C / 50°F
Humidity
77%
Altimeter
29.94" Hg
Pressure
1013.92 hPa
Current Rain
0.01"